sensor_id;sensor_type;location;lat;lon;timestamp;P1;durP1;ratioP1;P2;durP2;ratioP2
54177;SDS011;40085;53.004;6.770;2024-01-11T00:01:27;6.57;;;5.97;;
54177;SDS011;40085;53.004;6.770;2024-01-11T00:03:53;6.63;;;6.03;;
54177;SDS011;40085;53.004;6.770;2024-01-11T00:06:18;6.28;;;5.72;;
54177;SDS011;40085;53.004;6.770;2024-01-11T00:08:44;6.53;;;5.93;;
54177;SDS011;40085;53.004;6.770;2024-01-11T00:11:10;6.30;;;5.80;;
54177;SDS011;40085;53.004;6.770;2024-01-11T00:13:35;7.10;;;6.40;;
54177;SDS011;40085;53.004;6.770;2024-01-11T00:16:01;6.20;;;5.60;;
54177;SDS011;40085;53.004;6.770;2024-01-11T00:18:27;6.70;;;6.10;;
54177;SDS011;40085;53.004;6.770;2024-01-11T00:20:53;6.57;;;5.97;;
54177;SDS011;40085;53.004;6.770;2024-01-11T00:23:19;6.83;;;6.23;;
54177;SDS011;40085;53.004;6.770;2024-01-11T00:25:50;5.93;;;5.43;;
54177;SDS011;40085;53.004;6.770;2024-01-11T00:28:16;6.97;;;6.37;;
54177;SDS011;40085;53.004;6.770;2024-01-11T00:30:42;6.77;;;6.17;;
54177;SDS011;40085;53.004;6.770;2024-01-11T00:33:07;6.97;;;6.37;;
54177;SDS011;40085;53.004;6.770;2024-01-11T00:35:34;6.77;;;6.17;;
54177;SDS011;40085;53.004;6.770;2024-01-11T00:38:00;6.77;;;6.17;;
54177;SDS011;40085;53.004;6.770;2024-01-11T00:40:25;7.17;;;6.57;;
54177;SDS011;40085;53.004;6.770;2024-01-11T00:42:51;6.82;;;6.22;;
54177;SDS011;40085;53.004;6.770;2024-01-11T00:45:16;6.90;;;6.30;;
54177;SDS011;40085;53.004;6.770;2024-01-11T00:47:43;7.27;;;6.67;;
54177;SDS011;40085;53.004;6.770;2024-01-11T00:50:08;7.80;;;7.10;;
54177;SDS011;40085;53.004;6.770;2024-01-11T00:52:34;6.83;;;6.23;;
54177;SDS011;40085;53.004;6.770;2024-01-11T00:55:00;7.00;;;6.40;;
54177;SDS011;40085;53.004;6.770;2024-01-11T00:57:26;7.67;;;6.97;;
54177;SDS011;40085;53.004;6.770;2024-01-11T00:59:52;6.40;;;5.80;;
54177;SDS011;40085;53.004;6.770;2024-01-11T01:02:19;7.20;;;6.60;;
54177;SDS011;40085;53.004;6.770;2024-01-11T01:04:45;7.00;;;6.40;;
54177;SDS011;40085;53.004;6.770;2024-01-11T01:07:10;6.73;;;6.13;;
54177;SDS011;40085;53.004;6.770;2024-01-11T01:09:36;7.77;;;7.17;;
54177;SDS011;40085;53.004;6.770;2024-01-11T01:12:02;7.10;;;6.50;;
54177;SDS011;40085;53.004;6.770;2024-01-11T01:14:28;7.57;;;6.97;;
54177;SDS011;40085;53.004;6.770;2024-01-11T01:16:53;7.00;;;6.40;;
54177;SDS011;40085;53.004;6.770;2024-01-11T01:19:19;7.43;;;6.83;;
54177;SDS011;40085;53.004;6.770;2024-01-11T01:21:44;6.63;;;6.03;;
54177;SDS011;40085;53.004;6.770;2024-01-11T01:24:16;7.13;;;6.43;;
54177;SDS011;40085;53.004;6.770;2024-01-11T01:26:42;7.20;;;6.60;;
54177;SDS011;40085;53.004;6.770;2024-01-11T01:29:08;7.50;;;6.80;;
54177;SDS011;40085;53.004;6.770;2024-01-11T01:31:33;7.13;;;6.53;;
54177;SDS011;40085;53.004;6.770;2024-01-11T01:34:03;6.77;;;6.17;;
54177;SDS011;40085;53.004;6.770;2024-01-11T01:36:29;6.53;;;5.93;;
54177;SDS011;40085;53.004;6.770;2024-01-11T01:38:54;7.30;;;6.70;;
54177;SDS011;40085;53.004;6.770;2024-01-11T01:41:20;6.13;;;5.57;;
54177;SDS011;40085;53.004;6.770;2024-01-11T01:43:47;6.60;;;6.00;;
54177;SDS011;40085;53.004;6.770;2024-01-11T01:46:12;7.23;;;6.63;;
54177;SDS011;40085;53.004;6.770;2024-01-11T01:48:42;6.63;;;6.03;;
54177;SDS011;40085;53.004;6.770;2024-01-11T01:51:07;7.03;;;6.43;;
54177;SDS011;40085;53.004;6.770;2024-01-11T01:53:33;6.97;;;6.37;;
54177;SDS011;40085;53.004;6.770;2024-01-11T01:55:59;6.87;;;6.27;;
54177;SDS011;40085;53.004;6.770;2024-01-11T01:58:24;7.90;;;7.23;;
54177;SDS011;40085;53.004;6.770;2024-01-11T02:00:50;7.37;;;6.67;;
54177;SDS011;40085;53.004;6.770;2024-01-11T02:03:17;7.60;;;7.00;;
54177;SDS011;40085;53.004;6.770;2024-01-11T02:05:43;7.00;;;6.40;;
54177;SDS011;40085;53.004;6.770;2024-01-11T02:08:09;7.30;;;6.63;;
54177;SDS011;40085;53.004;6.770;2024-01-11T02:10:40;7.97;;;7.27;;
54177;SDS011;40085;53.004;6.770;2024-01-11T02:13:07;7.50;;;6.90;;
54177;SDS011;40085;53.004;6.770;2024-01-11T02:15:33;8.00;;;7.30;;
54177;SDS011;40085;53.004;6.770;2024-01-11T02:18:00;7.50;;;6.90;;
54177;SDS011;40085;53.004;6.770;2024-01-11T02:20:25;7.77;;;7.07;;
54177;SDS011;40085;53.004;6.770;2024-01-11T02:22:58;8.17;;;7.37;;
54177;SDS011;40085;53.004;6.770;2024-01-11T02:25:46;7.27;;;6.67;;
54177;SDS011;40085;53.004;6.770;2024-01-11T02:28:12;7.97;;;7.27;;
54177;SDS011;40085;53.004;6.770;2024-01-11T02:30:38;7.53;;;6.83;;
54177;SDS011;40085;53.004;6.770;2024-01-11T02:33:04;7.57;;;6.87;;
54177;SDS011;40085;53.004;6.770;2024-01-11T02:35:30;6.77;;;6.17;;
54177;SDS011;40085;53.004;6.770;2024-01-11T02:37:56;6.73;;;6.13;;
54177;SDS011;40085;53.004;6.770;2024-01-11T02:40:23;9.33;;;8.53;;
54177;SDS011;40085;53.004;6.770;2024-01-11T02:42:49;7.33;;;6.63;;
54177;SDS011;40085;53.004;6.770;2024-01-11T02:45:15;7.60;;;6.90;;
54177;SDS011;40085;53.004;6.770;2024-01-11T02:47:40;8.57;;;7.77;;
54177;SDS011;40085;53.004;6.770;2024-01-11T02:50:06;7.67;;;6.97;;
54177;SDS011;40085;53.004;6.770;2024-01-11T02:52:32;8.27;;;7.57;;
54177;SDS011;40085;53.004;6.770;2024-01-11T02:54:59;7.17;;;6.57;;
54177;SDS011;40085;53.004;6.770;2024-01-11T02:57:24;8.60;;;7.90;;
54177;SDS011;40085;53.004;6.770;2024-01-11T02:59:50;8.00;;;7.30;;
54177;SDS011;40085;53.004;6.770;2024-01-11T03:02:16;7.33;;;6.63;;
54177;SDS011;40085;53.004;6.770;2024-01-11T03:04:42;7.57;;;6.87;;
54177;SDS011;40085;53.004;6.770;2024-01-11T03:07:08;8.03;;;7.33;;
54177;SDS011;40085;53.004;6.770;2024-01-11T03:09:33;7.90;;;7.13;;
54177;SDS011;40085;53.004;6.770;2024-01-11T03:11:59;7.43;;;6.73;;
54177;SDS011;40085;53.004;6.770;2024-01-11T03:14:25;7.07;;;6.47;;
54177;SDS011;40085;53.004;6.770;2024-01-11T03:16:51;7.70;;;7.00;;
54177;SDS011;40085;53.004;6.770;2024-01-11T03:19:17;8.33;;;7.63;;
54177;SDS011;40085;53.004;6.770;2024-01-11T03:21:49;7.73;;;7.07;;
54177;SDS011;40085;53.004;6.770;2024-01-11T03:24:28;7.97;;;7.27;;
54177;SDS011;40085;53.004;6.770;2024-01-11T03:26:54;8.00;;;7.30;;
54177;SDS011;40085;53.004;6.770;2024-01-11T03:29:20;7.37;;;6.70;;
54177;SDS011;40085;53.004;6.770;2024-01-11T03:31:45;7.70;;;7.10;;
54177;SDS011;40085;53.004;6.770;2024-01-11T03:34:11;7.87;;;7.17;;
54177;SDS011;40085;53.004;6.770;2024-01-11T03:36:37;7.37;;;6.77;;
54177;SDS011;40085;53.004;6.770;2024-01-11T03:39:02;7.70;;;7.00;;
54177;SDS011;40085;53.004;6.770;2024-01-11T03:41:28;8.13;;;7.43;;
54177;SDS011;40085;53.004;6.770;2024-01-11T03:43:54;8.20;;;7.50;;
54177;SDS011;40085;53.004;6.770;2024-01-11T03:46:19;8.20;;;7.50;;
54177;SDS011;40085;53.004;6.770;2024-01-11T03:48:45;7.57;;;6.97;;
54177;SDS011;40085;53.004;6.770;2024-01-11T03:51:11;7.60;;;6.90;;
54177;SDS011;40085;53.004;6.770;2024-01-11T03:53:36;8.27;;;7.47;;
54177;SDS011;40085;53.004;6.770;2024-01-11T03:56:02;7.73;;;7.07;;
54177;SDS011;40085;53.004;6.770;2024-01-11T03:58:28;9.17;;;8.37;;
54177;SDS011;40085;53.004;6.770;2024-01-11T04:00:54;7.63;;;7.03;;
54177;SDS011;40085;53.004;6.770;2024-01-11T04:03:19;7.90;;;7.20;;
54177;SDS011;40085;53.004;6.770;2024-01-11T04:05:45;8.13;;;7.43;;
54177;SDS011;40085;53.004;6.770;2024-01-11T04:08:11;8.13;;;7.43;;
54177;SDS011;40085;53.004;6.770;2024-01-11T04:10:36;8.20;;;7.50;;
54177;SDS011;40085;53.004;6.770;2024-01-11T04:13:02;7.83;;;7.13;;
54177;SDS011;40085;53.004;6.770;2024-01-11T04:15:28;8.23;;;7.50;;
54177;SDS011;40085;53.004;6.770;2024-01-11T04:17:53;7.90;;;7.20;;
54177;SDS011;40085;53.004;6.770;2024-01-11T04:20:19;7.93;;;7.20;;
54177;SDS011;40085;53.004;6.770;2024-01-11T04:22:51;8.57;;;7.77;;
54177;SDS011;40085;53.004;6.770;2024-01-11T04:25:17;8.30;;;7.60;;
54177;SDS011;40085;53.004;6.770;2024-01-11T04:27:42;8.40;;;7.67;;
54177;SDS011;40085;53.004;6.770;2024-01-11T04:30:08;6.97;;;6.37;;
54177;SDS011;40085;53.004;6.770;2024-01-11T04:32:34;8.03;;;7.33;;
54177;SDS011;40085;53.004;6.770;2024-01-11T04:35:00;7.70;;;7.00;;
54177;SDS011;40085;53.004;6.770;2024-01-11T04:37:25;7.10;;;6.50;;
54177;SDS011;40085;53.004;6.770;2024-01-11T04:39:51;7.33;;;6.63;;
54177;SDS011;40085;53.004;6.770;2024-01-11T04:42:16;7.37;;;6.73;;
54177;SDS011;40085;53.004;6.770;2024-01-11T04:44:42;8.10;;;7.40;;
54177;SDS011;40085;53.004;6.770;2024-01-11T04:47:08;8.00;;;7.30;;
54177;SDS011;40085;53.004;6.770;2024-01-11T04:49:33;8.60;;;7.80;;
54177;SDS011;40085;53.004;6.770;2024-01-11T04:51:59;8.90;;;8.10;;
54177;SDS011;40085;53.004;6.770;2024-01-11T04:54:25;9.27;;;8.40;;
54177;SDS011;40085;53.004;6.770;2024-01-11T04:56:50;8.20;;;7.50;;
54177;SDS011;40085;53.004;6.770;2024-01-11T04:59:16;7.67;;;7.07;;
54177;SDS011;40085;53.004;6.770;2024-01-11T05:01:42;8.97;;;8.17;;
54177;SDS011;40085;53.004;6.770;2024-01-11T05:04:07;8.77;;;7.97;;
54177;SDS011;40085;53.004;6.770;2024-01-11T05:06:33;8.23;;;7.53;;
54177;SDS011;40085;53.004;6.770;2024-01-11T05:08:59;9.10;;;8.30;;
54177;SDS011;40085;53.004;6.770;2024-01-11T05:11:25;9.40;;;8.50;;
54177;SDS011;40085;53.004;6.770;2024-01-11T05:13:51;8.47;;;7.77;;
54177;SDS011;40085;53.004;6.770;2024-01-11T05:18:43;8.03;;;7.23;;
54177;SDS011;40085;53.004;6.770;2024-01-11T05:21:08;9.23;;;8.33;;
54177;SDS011;40085;53.004;6.770;2024-01-11T05:23:34;8.90;;;8.10;;
54177;SDS011;40085;53.004;6.770;2024-01-11T05:26:07;9.10;;;8.30;;
54177;SDS011;40085;53.004;6.770;2024-01-11T05:28:33;8.70;;;7.90;;
54177;SDS011;40085;53.004;6.770;2024-01-11T05:30:59;8.80;;;8.00;;
54177;SDS011;40085;53.004;6.770;2024-01-11T05:33:25;9.20;;;8.40;;
54177;SDS011;40085;53.004;6.770;2024-01-11T05:35:51;8.68;;;7.88;;
54177;SDS011;40085;53.004;6.770;2024-01-11T05:38:18;8.73;;;7.93;;
54177;SDS011;40085;53.004;6.770;2024-01-11T05:40:44;7.90;;;7.20;;
54177;SDS011;40085;53.004;6.770;2024-01-11T05:43:10;8.27;;;7.57;;
54177;SDS011;40085;53.004;6.770;2024-01-11T05:45:36;8.05;;;7.35;;
54177;SDS011;40085;53.004;6.770;2024-01-11T05:48:01;8.10;;;7.40;;
54177;SDS011;40085;53.004;6.770;2024-01-11T05:50:27;8.38;;;7.68;;
54177;SDS011;40085;53.004;6.770;2024-01-11T05:52:53;8.30;;;7.60;;
54177;SDS011;40085;53.004;6.770;2024-01-11T05:55:19;8.68;;;7.90;;
54177;SDS011;40085;53.004;6.770;2024-01-11T05:57:45;7.88;;;7.18;;
54177;SDS011;40085;53.004;6.770;2024-01-11T06:00:11;9.55;;;8.75;;
54177;SDS011;40085;53.004;6.770;2024-01-11T06:02:37;8.52;;;7.82;;
54177;SDS011;40085;53.004;6.770;2024-01-11T06:05:03;8.32;;;7.55;;
54177;SDS011;40085;53.004;6.770;2024-01-11T06:07:29;8.25;;;7.55;;
54177;SDS011;40085;53.004;6.770;2024-01-11T06:09:54;7.90;;;7.13;;
54177;SDS011;40085;53.004;6.770;2024-01-11T06:12:20;8.90;;;8.13;;
54177;SDS011;40085;53.004;6.770;2024-01-11T06:14:45;7.97;;;7.28;;
54177;SDS011;40085;53.004;6.770;2024-01-11T06:17:11;8.65;;;7.93;;
54177;SDS011;40085;53.004;6.770;2024-01-11T06:19:37;8.85;;;8.05;;
54177;SDS011;40085;53.004;6.770;2024-01-11T06:22:03;7.90;;;7.20;;
54177;SDS011;40085;53.004;6.770;2024-01-11T06:24:44;8.52;;;7.70;;
54177;SDS011;40085;53.004;6.770;2024-01-11T06:27:10;7.85;;;7.07;;
54177;SDS011;40085;53.004;6.770;2024-01-11T06:29:35;9.02;;;8.13;;
54177;SDS011;40085;53.004;6.770;2024-01-11T06:32:01;8.48;;;7.70;;
54177;SDS011;40085;53.004;6.770;2024-01-11T06:34:27;8.88;;;8.07;;
54177;SDS011;40085;53.004;6.770;2024-01-11T06:36:54;8.38;;;7.68;;
54177;SDS011;40085;53.004;6.770;2024-01-11T06:39:20;8.32;;;7.63;;
54177;SDS011;40085;53.004;6.770;2024-01-11T06:41:46;8.45;;;7.75;;
54177;SDS011;40085;53.004;6.770;2024-01-11T06:44:11;9.02;;;8.13;;
54177;SDS011;40085;53.004;6.770;2024-01-11T06:46:37;8.20;;;7.43;;
54177;SDS011;40085;53.004;6.770;2024-01-11T06:49:06;7.97;;;7.28;;
54177;SDS011;40085;53.004;6.770;2024-01-11T06:51:35;10.35;;;9.45;;
54177;SDS011;40085;53.004;6.770;2024-01-11T06:54:00;8.75;;;8.05;;
54177;SDS011;40085;53.004;6.770;2024-01-11T06:56:26;9.05;;;8.25;;
54177;SDS011;40085;53.004;6.770;2024-01-11T06:58:52;9.07;;;8.18;;
54177;SDS011;40085;53.004;6.770;2024-01-11T07:01:19;9.02;;;8.23;;
54177;SDS011;40085;53.004;6.770;2024-01-11T07:03:45;10.32;;;9.32;;
54177;SDS011;40085;53.004;6.770;2024-01-11T07:06:11;8.90;;;8.10;;
54177;SDS011;40085;53.004;6.770;2024-01-11T07:08:37;8.68;;;7.88;;
54177;SDS011;40085;53.004;6.770;2024-01-11T07:11:03;8.75;;;7.97;;
54177;SDS011;40085;53.004;6.770;2024-01-11T07:13:31;7.68;;;7.00;;
54177;SDS011;40085;53.004;6.770;2024-01-11T07:15:57;7.10;;;6.50;;
54177;SDS011;40085;53.004;6.770;2024-01-11T07:18:26;7.93;;;7.22;;
54177;SDS011;40085;53.004;6.770;2024-01-11T07:20:52;8.15;;;7.45;;
54177;SDS011;40085;53.004;6.770;2024-01-11T07:23:18;8.57;;;7.78;;
54177;SDS011;40085;53.004;6.770;2024-01-11T07:26:04;7.80;;;7.20;;
54177;SDS011;40085;53.004;6.770;2024-01-11T07:28:29;7.53;;;6.85;;
54177;SDS011;40085;53.004;6.770;2024-01-11T07:30:55;8.27;;;7.57;;
54177;SDS011;40085;53.004;6.770;2024-01-11T07:33:21;7.85;;;7.15;;
54177;SDS011;40085;53.004;6.770;2024-01-11T07:35:47;7.80;;;7.10;;
54177;SDS011;40085;53.004;6.770;2024-01-11T07:38:13;8.00;;;7.30;;
54177;SDS011;40085;53.004;6.770;2024-01-11T07:40:38;7.97;;;7.28;;
54177;SDS011;40085;53.004;6.770;2024-01-11T07:43:04;8.18;;;7.47;;
54177;SDS011;40085;53.004;6.770;2024-01-11T07:45:30;7.93;;;7.22;;
54177;SDS011;40085;53.004;6.770;2024-01-11T07:47:55;7.85;;;7.15;;
54177;SDS011;40085;53.004;6.770;2024-01-11T07:50:21;7.68;;;6.97;;
54177;SDS011;40085;53.004;6.770;2024-01-11T07:52:47;7.78;;;7.00;;
54177;SDS011;40085;53.004;6.770;2024-01-11T07:55:12;7.32;;;6.72;;
54177;SDS011;40085;53.004;6.770;2024-01-11T07:57:38;7.00;;;6.40;;
54177;SDS011;40085;53.004;6.770;2024-01-11T08:00:05;7.80;;;7.20;;
54177;SDS011;40085;53.004;6.770;2024-01-11T08:02:34;7.35;;;6.65;;
54177;SDS011;40085;53.004;6.770;2024-01-11T08:05:00;7.97;;;7.28;;
54177;SDS011;40085;53.004;6.770;2024-01-11T08:07:29;7.13;;;6.50;;
54177;SDS011;40085;53.004;6.770;2024-01-11T08:09:55;6.97;;;6.38;;
54177;SDS011;40085;53.004;6.770;2024-01-11T08:12:21;8.00;;;7.30;;
54177;SDS011;40085;53.004;6.770;2024-01-11T08:14:47;7.45;;;6.85;;
54177;SDS011;40085;53.004;6.770;2024-01-11T08:17:13;8.48;;;7.32;;
54177;SDS011;40085;53.004;6.770;2024-01-11T08:19:39;8.27;;;7.50;;
54177;SDS011;40085;53.004;6.770;2024-01-11T08:22:05;7.30;;;6.70;;
54177;SDS011;40085;53.004;6.770;2024-01-11T08:24:52;7.25;;;6.57;;
54177;SDS011;40085;53.004;6.770;2024-01-11T08:27:17;7.90;;;7.20;;
54177;SDS011;40085;53.004;6.770;2024-01-11T08:29:43;7.72;;;7.05;;
54177;SDS011;40085;53.004;6.770;2024-01-11T08:32:09;6.63;;;6.03;;
54177;SDS011;40085;53.004;6.770;2024-01-11T08:34:34;7.35;;;6.65;;
54177;SDS011;40085;53.004;6.770;2024-01-11T08:37:00;6.60;;;6.05;;
54177;SDS011;40085;53.004;6.770;2024-01-11T08:39:25;7.20;;;6.60;;
54177;SDS011;40085;53.004;6.770;2024-01-11T08:41:51;7.35;;;6.75;;
54177;SDS011;40085;53.004;6.770;2024-01-11T08:44:17;6.63;;;6.03;;
54177;SDS011;40085;53.004;6.770;2024-01-11T08:46:43;7.18;;;6.57;;
54177;SDS011;40085;53.004;6.770;2024-01-11T08:49:09;7.35;;;6.75;;
54177;SDS011;40085;53.004;6.770;2024-01-11T08:51:35;6.90;;;6.30;;
54177;SDS011;40085;53.004;6.770;2024-01-11T08:54:00;6.93;;;6.32;;
54177;SDS011;40085;53.004;6.770;2024-01-11T08:56:29;6.90;;;6.20;;
54177;SDS011;40085;53.004;6.770;2024-01-11T08:58:55;7.18;;;6.57;;
54177;SDS011;40085;53.004;6.770;2024-01-11T09:01:20;6.55;;;5.95;;
54177;SDS011;40085;53.004;6.770;2024-01-11T09:03:47;6.07;;;5.57;;
54177;SDS011;40085;53.004;6.770;2024-01-11T09:06:15;6.65;;;6.05;;
54177;SDS011;40085;53.004;6.770;2024-01-11T09:08:41;6.80;;;6.20;;
54177;SDS011;40085;53.004;6.770;2024-01-11T09:11:07;6.93;;;6.32;;
54177;SDS011;40085;53.004;6.770;2024-01-11T09:13:32;6.35;;;5.75;;
54177;SDS011;40085;53.004;6.770;2024-01-11T09:15:58;7.00;;;6.40;;
54177;SDS011;40085;53.004;6.770;2024-01-11T09:18:24;6.35;;;5.80;;
54177;SDS011;40085;53.004;6.770;2024-01-11T09:20:50;6.07;;;5.47;;
54177;SDS011;40085;53.004;6.770;2024-01-11T09:23:16;5.95;;;5.45;;
54177;SDS011;40085;53.004;6.770;2024-01-11T09:26:02;6.13;;;5.60;;
54177;SDS011;40085;53.004;6.770;2024-01-11T09:28:27;5.50;;;5.07;;
54177;SDS011;40085;53.004;6.770;2024-01-11T09:30:56;5.97;;;5.47;;
54177;SDS011;40085;53.004;6.770;2024-01-11T09:35:51;5.95;;;5.45;;
54177;SDS011;40085;53.004;6.770;2024-01-11T09:38:16;6.40;;;5.80;;
54177;SDS011;40085;53.004;6.770;2024-01-11T09:40:42;6.53;;;5.93;;
54177;SDS011;40085;53.004;6.770;2024-01-11T09:43:07;6.53;;;5.93;;
54177;SDS011;40085;53.004;6.770;2024-01-11T09:45:35;7.03;;;6.43;;
54177;SDS011;40085;53.004;6.770;2024-01-11T09:48:03;5.90;;;5.40;;
54177;SDS011;40085;53.004;6.770;2024-01-11T09:50:31;6.00;;;5.50;;
54177;SDS011;40085;53.004;6.770;2024-01-11T09:52:57;6.43;;;5.93;;
54177;SDS011;40085;53.004;6.770;2024-01-11T09:55:25;6.18;;;5.57;;
54177;SDS011;40085;53.004;6.770;2024-01-11T09:57:52;6.28;;;5.72;;
54177;SDS011;40085;53.004;6.770;2024-01-11T10:00:22;6.22;;;5.72;;
54177;SDS011;40085;53.004;6.770;2024-01-11T10:02:49;6.78;;;6.18;;
54177;SDS011;40085;53.004;6.770;2024-01-11T10:05:18;6.32;;;5.72;;
54177;SDS011;40085;53.004;6.770;2024-01-11T10:07:44;6.85;;;6.25;;
54177;SDS011;40085;53.004;6.770;2024-01-11T10:10:10;5.63;;;5.13;;
54177;SDS011;40085;53.004;6.770;2024-01-11T10:12:40;6.43;;;5.82;;
54177;SDS011;40085;53.004;6.770;2024-01-11T10:15:09;5.85;;;5.35;;
54177;SDS011;40085;53.004;6.770;2024-01-11T10:17:42;5.90;;;5.40;;
54177;SDS011;40085;53.004;6.770;2024-01-11T10:20:12;5.70;;;5.18;;
54177;SDS011;40085;53.004;6.770;2024-01-11T10:22:39;5.45;;;4.95;;
54177;SDS011;40085;53.004;6.770;2024-01-11T10:25:13;6.22;;;5.63;;
54177;SDS011;40085;53.004;6.770;2024-01-11T10:27:41;5.60;;;5.10;;
54177;SDS011;40085;53.004;6.770;2024-01-11T10:30:09;5.38;;;4.88;;
54177;SDS011;40085;53.004;6.770;2024-01-11T10:32:39;5.97;;;5.47;;
54177;SDS011;40085;53.004;6.770;2024-01-11T10:35:04;5.45;;;4.95;;
54177;SDS011;40085;53.004;6.770;2024-01-11T10:37:31;5.50;;;5.00;;
54177;SDS011;40085;53.004;6.770;2024-01-11T10:40:02;6.35;;;5.75;;
54177;SDS011;40085;53.004;6.770;2024-01-11T10:42:34;4.88;;;4.47;;
54177;SDS011;40085;53.004;6.770;2024-01-11T10:45:02;5.32;;;4.82;;
54177;SDS011;40085;53.004;6.770;2024-01-11T10:47:31;4.85;;;4.45;;
54177;SDS011;40085;53.004;6.770;2024-01-11T10:49:58;5.15;;;4.75;;
54177;SDS011;40085;53.004;6.770;2024-01-11T10:52:28;4.88;;;4.47;;
54177;SDS011;40085;53.004;6.770;2024-01-11T10:55:00;5.00;;;4.60;;
54177;SDS011;40085;53.004;6.770;2024-01-11T10:57:27;5.47;;;4.97;;
54177;SDS011;40085;53.004;6.770;2024-01-11T10:59:54;4.63;;;4.22;;
54177;SDS011;40085;53.004;6.770;2024-01-11T11:02:20;4.45;;;4.05;;
54177;SDS011;40085;53.004;6.770;2024-01-11T11:04:47;5.97;;;5.05;;
54177;SDS011;40085;53.004;6.770;2024-01-11T11:07:16;5.63;;;5.07;;
54177;SDS011;40085;53.004;6.770;2024-01-11T11:09:43;7.10;;;5.47;;
54177;SDS011;40085;53.004;6.770;2024-01-11T11:12:10;5.65;;;5.15;;
54177;SDS011;40085;53.004;6.770;2024-01-11T11:14:36;5.15;;;4.72;;
54177;SDS011;40085;53.004;6.770;2024-01-11T11:17:03;5.10;;;4.70;;
54177;SDS011;40085;53.004;6.770;2024-01-11T11:19:30;4.82;;;4.43;;
54177;SDS011;40085;53.004;6.770;2024-01-11T11:21:56;5.18;;;4.70;;
54177;SDS011;40085;53.004;6.770;2024-01-11T11:24:22;5.30;;;4.80;;
54177;SDS011;40085;53.004;6.770;2024-01-11T11:26:54;5.63;;;5.15;;
54177;SDS011;40085;53.004;6.770;2024-01-11T11:29:22;5.60;;;5.10;;
54177;SDS011;40085;53.004;6.770;2024-01-11T11:31:48;5.50;;;5.00;;
54177;SDS011;40085;53.004;6.770;2024-01-11T11:34:19;5.28;;;4.88;;
54177;SDS011;40085;53.004;6.770;2024-01-11T11:36:48;5.78;;;5.28;;
54177;SDS011;40085;53.004;6.770;2024-01-11T11:39:19;5.43;;;4.93;;
54177;SDS011;40085;53.004;6.770;2024-01-11T11:41:45;5.13;;;4.70;;
54177;SDS011;40085;53.004;6.770;2024-01-11T11:44:12;4.90;;;4.50;;
54177;SDS011;40085;53.004;6.770;2024-01-11T11:46:38;5.35;;;4.85;;
54177;SDS011;40085;53.004;6.770;2024-01-11T11:49:04;4.38;;;3.97;;
54177;SDS011;40085;53.004;6.770;2024-01-11T11:51:30;5.15;;;4.65;;
54177;SDS011;40085;53.004;6.770;2024-01-11T11:53:58;5.57;;;5.07;;
54177;SDS011;40085;53.004;6.770;2024-01-11T11:56:23;5.43;;;4.93;;
54177;SDS011;40085;53.004;6.770;2024-01-11T11:58:49;5.38;;;4.90;;
54177;SDS011;40085;53.004;6.770;2024-01-11T12:01:17;4.95;;;4.55;;
54177;SDS011;40085;53.004;6.770;2024-01-11T12:03:44;5.30;;;4.80;;
54177;SDS011;40085;53.004;6.770;2024-01-11T12:06:19;5.00;;;4.60;;
54177;SDS011;40085;53.004;6.770;2024-01-11T12:08:48;5.60;;;5.10;;
54177;SDS011;40085;53.004;6.770;2024-01-11T12:11:14;6.05;;;5.45;;
54177;SDS011;40085;53.004;6.770;2024-01-11T12:13:44;5.05;;;4.65;;
54177;SDS011;40085;53.004;6.770;2024-01-11T12:16:10;5.55;;;5.05;;
54177;SDS011;40085;53.004;6.770;2024-01-11T12:18:37;5.63;;;5.07;;
54177;SDS011;40085;53.004;6.770;2024-01-11T12:21:02;5.72;;;4.78;;
54177;SDS011;40085;53.004;6.770;2024-01-11T12:23:36;4.70;;;4.30;;
54177;SDS011;40085;53.004;6.770;2024-01-11T12:26:17;5.55;;;5.05;;
54177;SDS011;40085;53.004;6.770;2024-01-11T12:28:46;5.20;;;4.70;;
54177;SDS011;40085;53.004;6.770;2024-01-11T12:31:12;5.30;;;4.88;;
54177;SDS011;40085;53.004;6.770;2024-01-11T12:33:38;5.55;;;4.75;;
54177;SDS011;40085;53.004;6.770;2024-01-11T12:36:04;5.72;;;5.13;;
54177;SDS011;40085;53.004;6.770;2024-01-11T12:38:33;5.45;;;4.93;;
54177;SDS011;40085;53.004;6.770;2024-01-11T12:40:59;5.28;;;4.78;;
54177;SDS011;40085;53.004;6.770;2024-01-11T12:43:24;5.30;;;4.82;;
54177;SDS011;40085;53.004;6.770;2024-01-11T12:45:50;5.78;;;5.18;;
54177;SDS011;40085;53.004;6.770;2024-01-11T12:48:16;5.13;;;4.72;;
54177;SDS011;40085;53.004;6.770;2024-01-11T12:50:43;4.97;;;4.57;;
54177;SDS011;40085;53.004;6.770;2024-01-11T12:53:09;5.47;;;4.97;;
54177;SDS011;40085;53.004;6.770;2024-01-11T12:55:45;6.20;;;5.15;;
54177;SDS011;40085;53.004;6.770;2024-01-11T12:58:12;5.03;;;4.60;;
54177;SDS011;40085;53.004;6.770;2024-01-11T13:00:38;5.05;;;4.63;;
54177;SDS011;40085;53.004;6.770;2024-01-11T13:03:04;5.30;;;4.80;;
54177;SDS011;40085;53.004;6.770;2024-01-11T13:05:31;4.55;;;4.15;;
54177;SDS011;40085;53.004;6.770;2024-01-11T13:08:18;5.03;;;4.63;;
54177;SDS011;40085;53.004;6.770;2024-01-11T13:10:43;4.88;;;4.47;;
54177;SDS011;40085;53.004;6.770;2024-01-11T13:13:09;5.03;;;4.63;;
54177;SDS011;40085;53.004;6.770;2024-01-11T13:15:35;5.30;;;4.25;;
54177;SDS011;40085;53.004;6.770;2024-01-11T13:18:04;5.03;;;4.63;;
54177;SDS011;40085;53.004;6.770;2024-01-11T13:20:30;4.80;;;4.40;;
54177;SDS011;40085;53.004;6.770;2024-01-11T13:23:12;4.88;;;4.47;;
54177;SDS011;40085;53.004;6.770;2024-01-11T13:25:52;6.70;;;4.80;;
54177;SDS011;40085;53.004;6.770;2024-01-11T13:28:17;5.53;;;5.00;;
54177;SDS011;40085;53.004;6.770;2024-01-11T13:30:44;4.88;;;4.47;;
54177;SDS011;40085;53.004;6.770;2024-01-11T13:33:14;5.05;;;4.55;;
54177;SDS011;40085;53.004;6.770;2024-01-11T13:35:42;4.80;;;4.40;;
54177;SDS011;40085;53.004;6.770;2024-01-11T13:38:08;4.72;;;4.13;;
54177;SDS011;40085;53.004;6.770;2024-01-11T13:40:34;5.05;;;4.60;;
54177;SDS011;40085;53.004;6.770;2024-01-11T13:43:00;4.25;;;3.90;;
54177;SDS011;40085;53.004;6.770;2024-01-11T13:45:29;4.82;;;4.32;;
54177;SDS011;40085;53.004;6.770;2024-01-11T13:47:55;4.80;;;4.38;;
54177;SDS011;40085;53.004;6.770;2024-01-11T13:50:23;4.53;;;4.13;;
54177;SDS011;40085;53.004;6.770;2024-01-11T13:52:52;4.60;;;4.20;;
54177;SDS011;40085;53.004;6.770;2024-01-11T13:55:18;5.65;;;5.15;;
54177;SDS011;40085;53.004;6.770;2024-01-11T13:57:46;4.65;;;4.25;;
54177;SDS011;40085;53.004;6.770;2024-01-11T14:00:12;4.63;;;4.22;;
54177;SDS011;40085;53.004;6.770;2024-01-11T14:02:38;4.82;;;4.38;;
54177;SDS011;40085;53.004;6.770;2024-01-11T14:05:05;5.25;;;4.80;;
54177;SDS011;40085;53.004;6.770;2024-01-11T14:07:39;5.88;;;4.88;;
54177;SDS011;40085;53.004;6.770;2024-01-11T14:10:05;5.10;;;4.65;;
54177;SDS011;40085;53.004;6.770;2024-01-11T14:12:33;5.57;;;5.07;;
54177;SDS011;40085;53.004;6.770;2024-01-11T14:15:01;4.80;;;4.40;;
54177;SDS011;40085;53.004;6.770;2024-01-11T14:17:28;5.78;;;5.22;;
54177;SDS011;40085;53.004;6.770;2024-01-11T14:19:54;4.60;;;4.20;;
54177;SDS011;40085;53.004;6.770;2024-01-11T14:22:20;5.32;;;4.82;;
54177;SDS011;40085;53.004;6.770;2024-01-11T14:24:51;5.25;;;4.65;;
54177;SDS011;40085;53.004;6.770;2024-01-11T14:27:19;5.03;;;4.60;;
54177;SDS011;40085;53.004;6.770;2024-01-11T14:29:46;5.63;;;5.13;;
54177;SDS011;40085;53.004;6.770;2024-01-11T14:32:12;6.10;;;5.60;;
54177;SDS011;40085;53.004;6.770;2024-01-11T14:34:40;5.53;;;5.03;;
54177;SDS011;40085;53.004;6.770;2024-01-11T14:37:07;5.80;;;5.30;;
54177;SDS011;40085;53.004;6.770;2024-01-11T14:39:32;5.78;;;5.28;;
54177;SDS011;40085;53.004;6.770;2024-01-11T14:41:58;5.15;;;4.75;;
54177;SDS011;40085;53.004;6.770;2024-01-11T14:44:24;5.47;;;4.97;;
54177;SDS011;40085;53.004;6.770;2024-01-11T14:46:49;5.55;;;5.05;;
54177;SDS011;40085;53.004;6.770;2024-01-11T14:49:15;5.97;;;5.47;;
54177;SDS011;40085;53.004;6.770;2024-01-11T14:51:41;5.82;;;5.22;;